NCAR-RAP Real-Time Weather Data

Output produced by METARs form (01 October 2022  06:02 UTC)
found at http://weather.rap.ucar.edu/surface/
 
RPLL 010500Z 12010KT 080V160 9999 FEW025 34/23 Q1010 NOSIG RMK A2983
RPLL 010400Z 12010KT 080V160 9999 FEW025 33/23 Q1011 NOSIG RMK A2985
RPLL 010300Z 13007KT 070V190 9999 FEW025 32/24 Q1011 NOSIG RMK A2985
RPLL 010200Z 10006KT 030V140 9999 FEW025 31/23 Q1012 NOSIG RMK A2988
RPLL 010100Z 12004KT 060V170 9999 FEW025 30/23 Q1012 NOSIG RMK A2988
RPLL 010000Z 10003KT 030V180 9999 FEW025 28/23 Q1012 NOSIG RMK A2988
RPLL 302300Z VRB02KT 9999 FEW025 27/24 Q1012 NOSIG RMK A2988
RPLL 302200Z 16003KT 130V190 9999 FEW025 SCT100 26/24 Q1011 NOSIG RMK A2985
RPLL 302100Z VRB02KT 9999 SCT023 BKN100 26/24 Q1010 NOSIG RMK A2983
RPLL 302000Z VRB01KT 9999 SCT023 BKN100 27/24 Q1010 NOSIG RMK A2983
RPLL 301900Z 20003KT 9999 FEW025 SCT100 27/24 Q1011 NOSIG RMK A2985